Latest Weather Observations for Lajamanu

IDD60801

Issued at 2:01 pm CST Saturday 20 December 2014 (issued every 30 minutes, with the page automatically refreshed every 10 minutes)

About weather observations | Map of weather stations | Latest weather observations for NT | Other Formats
Station Details ID: 014829 Name: LAJAMANU AIRPORT Lat: -18.33 Lon: 130.64 Height: 315.6 m
Data from the previous 72 hours. | See also: Recent months at Lajamanu
Date/Time
CST
Temp
°C
App
Temp
°C
Dew
Point
Rel
Hum
%
Delta-T
°C
Wind Press
QNH
hPa
Press
MSL
hPa
Rain
since 9 am
mm
Dir
 
Spd
km/h
Gust
km/h
Spd
kts
Gust
kts
20/02:00pm 35.5 35.9 19.0 37 11.0 NNE 15 24 8 13 1008.8 1006.3 0.2
20/01:30pm 34.8 34.5 19.2 39 10.4 N 19 26 10 14 1009.5 1006.9 0.2
20/01:00pm 35.4 35.9 19.3 38 10.8 NNE 15 26 8 14 1010.0 1007.4 0.2
20/12:30pm 35.2 35.1 18.7 37 11.0 NNE 17 26 9 14 1010.5 1007.9 0.2
20/12:00pm 35.7 35.4 19.2 38 11.0 ENE 19 32 10 17 1011.1 1008.6 0.2
20/11:30am 34.4 34.3 19.6 41 9.9 E 19 30 10 16 1011.6 1009.1 0.2
20/11:00am 33.9 32.7 18.4 40 10.2 E 22 32 12 17 1012.1 1009.6 0.2
20/10:30am 34.1 33.9 19.4 42 9.8 ESE 19 30 10 16 1012.4 1009.9 0.2
20/10:00am 32.4 33.8 19.6 46 8.5 ESE 11 24 6 13 1012.6 1010.1 0.2
20/09:30am 31.7 33.1 20.3 50 7.7 S 13 19 7 10 1012.8 1010.2 0.2
20/09:00am 29.6 32.3 21.3 61 5.6 SE 9 15 5 8 1012.6 1010.1 1.2
20/08:30am 27.6 30.6 21.9 71 3.9 S 9 13 5 7 1012.5 1010.0 1.2
20/08:00am 27.0 29.0 21.5 72 3.7 S 13 17 7 9 1012.1 1009.6 1.2
20/07:30am 26.0 29.0 21.9 78 2.8 SSE 9 11 5 6 1012.0 1009.5 1.2
20/07:00am 25.2 28.2 21.9 82 2.2 S 9 11 5 6 1011.6 1009.1 1.2
20/06:30am 24.9 27.7 21.6 82 2.2 S 9 11 5 6 1011.3 1008.8 1.2
20/06:00am 24.9 28.1 21.6 82 2.2 SSW 7 9 4 5 1010.9 1008.4 1.2
20/05:30am 24.8 27.2 21.5 82 2.2 SSW 11 13 6 7 1010.5 1007.9 1.2
20/05:00am 25.0 27.9 21.7 82 2.2 SW 9 13 5 7 1010.0 1007.4 1.2
20/04:30am 24.8 28.0 21.7 83 2.1 WSW 7 9 4 5 1009.9 1007.3 1.2
20/04:00am 24.6 27.8 21.3 82 2.2 W 6 9 3 5 1009.6 1007.0 1.2
20/03:30am 24.7 28.6 21.2 81 2.3 WSW 2 6 1 3 1009.8 1007.2 1.2
20/03:00am 24.8 28.0 21.3 81 2.3 WSW 6 9 3 5 1009.9 1007.3 1.2
20/02:30am 24.9 28.0 21.0 79 2.6 WNW 6 9 3 5 1010.3 1007.7 1.2
20/02:00am 25.0 27.8 20.9 78 2.7 WNW 7 9 4 5 1010.5 1007.9 1.2
20/01:30am 25.2 27.2 20.7 76 3.0 NW 11 15 6 8 1011.0 1008.5 1.2
20/01:00am 25.1 26.9 21.2 79 2.6 NW 13 19 7 10 1011.3 1008.8 1.2
20/12:30am 25.3 26.9 21.4 79 2.6 NNW 15 19 8 10 1011.6 1009.1 1.2
20/12:00am 25.3 26.3 21.8 81 2.4 N 19 24 10 13 1011.6 1009.1 1.2
 
Date/Time
CST
Temp
°C
App
Temp
°C
Dew
Point
Rel
Hum
%
Delta-T
°C
Wind Press
QNH
hPa
Press
MSL
hPa
Rain
since 9 am
mm
Dir
 
Spd
km/h
Gust
km/h
Spd
kts
Gust
kts
19/11:30pm 25.3 25.7 21.8 81 2.4 N 22 33 12 18 1011.8 1009.3 1.2
19/11:00pm 25.2 25.3 21.9 82 2.2 N 24 32 13 17 1011.9 1009.4 1.2
19/10:30pm 25.5 25.5 22.4 83 2.1 N 26 37 14 20 1012.4 1009.9 1.2
19/10:00pm 25.5 26.3 21.8 80 2.5 NNE 20 33 11 18 1012.5 1010.0 1.2
19/09:30pm 25.5 27.6 22.4 83 2.1 NE 15 17 8 9 1012.4 1009.9 0.6
19/09:00pm 25.8 28.3 22.5 82 2.2 ENE 13 20 7 11 1012.1 1009.6 0.2
19/08:30pm 27.5 28.8 20.8 67 4.5 SSE 15 22 8 12 1011.4 1008.9 0.0
19/08:00pm 27.6 27.2 20.9 67 4.5 SSE 24 35 13 19 1011.5 1009.0 0.0
19/07:30pm 27.9 27.6 19.1 58 5.8 SW 19 26 10 14 1010.7 1008.1 0.0
19/07:00pm 29.4 30.9 20.5 58 6.0 SSW 13 17 7 9 1010.2 1007.6 0.0
19/06:30pm 29.9 29.6 18.3 49 7.5 NNW 17 26 9 14 1009.5 1006.9 0.0
19/06:00pm 31.9 31.0 19.8 48 8.1 N 24 39 13 21 1009.7 1007.1 0.0
19/05:30pm 32.7 34.3 19.9 46 8.6 W 11 17 6 9 1008.3 1005.8 0.0
19/05:00pm 33.5 32.8 20.3 46 8.9 NNW 24 32 13 17 1007.4 1004.8 0.0
19/04:56pm 34.0 33.0 19.6 42 9.6 NNW 24 32 13 17 1007.5 1004.9 0.0
19/04:30pm 39.0 39.5 16.6 27 14.6 S 9 15 5 8 1007.8 1005.2 0.0
19/04:00pm 38.5 38.7 16.7 27 14.2 SE 11 22 6 12 1007.9 1005.3 0.0
19/03:30pm 38.9 37.7 17.1 28 14.3 SE 19 35 10 19 1008.3 1005.8 0.0
19/03:00pm 38.3 37.7 16.6 28 14.1 SSE 15 24 8 13 1008.6 1006.1 0.0
19/02:30pm 37.5 35.3 17.0 30 13.4 SE 24 33 13 18 1009.0 1006.5 0.0
19/02:02pm 36.0 33.9 17.2 33 12.2 SSE 24 46 13 25 1009.2 1006.7 0.0
19/02:00pm 37.3 36.2 17.8 31 12.9 SSE 20 41 11 22 1009.2 1006.7 0.0
19/01:30pm 38.3 36.7 16.6 28 14.1 ESE 20 33 11 18 1010.1 1007.5 0.0
19/01:00pm 38.8 38.2 17.5 28 14.0 ESE 17 26 9 14 1010.7 1008.1 0.0
19/12:30pm 38.4 37.7 18.3 31 13.4 E 19 44 10 24 1011.2 1008.7 0.0
19/12:00pm 36.4 35.8 17.5 32 12.4 E 17 26 9 14 1011.8 1009.3 0.0
19/11:30am 37.7 37.8 19.1 33 12.5 ESE 17 30 9 16 1012.3 1009.8 0.0
19/11:00am 36.8 36.6 18.4 34 12.2 E 17 26 9 14 1012.6 1010.1 0.0
19/10:30am 36.0 35.6 18.1 34 11.8 SE 17 28 9 15 1012.9 1010.3 0.0
19/10:00am 35.3 35.6 19.6 39 10.5 ESE 17 26 9 14 1013.0 1010.4 0.0
19/09:30am 34.2 33.5 18.7 40 10.3 SE 20 28 11 15 1013.1 1010.5 0.0
19/09:00am 33.9 33.1 19.2 42 9.8 ESE 22 32 12 17 1013.0 1010.4 0.0
19/08:30am 32.9 32.7 19.7 45 8.8 SE 20 30 11 16 1012.8 1010.2 0.0
19/08:00am 31.6 32.2 20.2 50 7.6 SE 17 20 9 11 1012.8 1010.2 0.0
19/07:30am 29.7 31.5 20.3 57 6.3 SE 11 17 6 9 1012.3 1009.8 0.0
19/07:00am 28.1 30.5 20.9 65 4.8 SE 9 11 5 6 1012.2 1009.7 0.0
19/06:30am 26.5 29.0 21.0 72 3.7 E 9 11 5 6 1011.6 1009.1 0.0
19/06:00am 25.9 28.2 20.7 73 3.5 E 9 11 5 6 1011.2 1008.7 0.0
19/05:30am 26.4 29.1 20.3 69 4.0 ESE 6 7 3 4 1010.8 1008.2 0.0
19/05:00am 26.5 30.3 20.1 68 4.2 CALM 0 7 0 4 1010.5 1007.9 0.0
19/04:30am 26.7 30.6 20.3 68 4.2 CALM 0 7 0 4 1010.4 1007.8 0.0
19/04:00am 27.2 30.4 20.5 67 4.5 SSW 4 9 2 5 1010.3 1007.7 0.0
19/03:30am 27.3 31.2 20.4 66 4.6 CALM 0 6 0 3 1010.3 1007.7 0.0
19/03:00am 27.5 30.2 20.6 66 4.6 SSW 7 9 4 5 1010.2 1007.6 0.0
19/02:30am 27.6 29.6 20.7 66 4.6 SSW 11 13 6 7 1010.2 1007.6 0.0
19/02:00am 27.6 29.7 20.9 67 4.5 SSW 11 15 6 8 1010.3 1007.7 0.0
19/01:30am 27.9 29.6 21.0 66 4.6 SSW 13 19 7 10 1010.5 1007.9 0.0
19/01:00am 28.1 30.4 20.6 63 5.0 SW 9 17 5 9 1010.6 1008.0 0.0
19/12:30am 28.1 31.5 20.1 62 5.3 SSW 2 7 1 4 1010.7 1008.1 0.0
19/12:00am 28.6 31.2 20.1 60 5.6 SW 6 7 3 4 1011.0 1008.5 0.0
 
Date/Time
CST
Temp
°C
App
Temp
°C
Dew
Point
Rel
Hum
%
Delta-T
°C
Wind Press
QNH
hPa
Press
MSL
hPa
Rain
since 9 am
mm
Dir
 
Spd
km/h
Gust
km/h
Spd
kts
Gust
kts
18/11:30pm 28.4 30.0 19.1 57 6.1 WSW 9 13 5 7 1010.8 1008.2 0.0
18/11:00pm 28.9 30.9 18.7 54 6.6 W 6 7 3 4 1010.9 1008.4 0.0
18/10:30pm 29.4 30.1 18.8 53 6.9 NNW 13 15 7 8 1010.7 1008.1 0.0
18/10:00pm 29.5 30.9 19.5 55 6.6 NNW 11 15 6 8 1010.2 1007.6 0.0
18/09:30pm 30.0 31.1 19.7 54 6.8 NW 13 17 7 9 1010.1 1007.5 0.0
18/09:00pm 30.4 30.2 19.4 51 7.3 NNW 19 24 10 13 1009.9 1007.3 0.0
18/08:30pm 30.9 30.1 19.3 50 7.7 NNW 22 30 12 16 1010.2 1007.6 0.0
18/08:00pm 31.2 33.3 21.7 57 6.5 NW 13 26 7 14 1010.2 1007.6 0.0
18/07:30pm 31.3 33.4 20.9 54 7.0 W 11 17 6 9 1009.3 1006.8 0.0
18/07:00pm 32.2 33.7 19.8 48 8.3 WSW 11 17 6 9 1008.9 1006.4 0.0
18/06:30pm 33.0 34.2 19.1 43 9.2 SW 11 15 6 8 1008.1 1005.6 0.0
18/06:00pm 34.0 34.8 18.1 39 10.4 SSW 11 17 6 9 1007.4 1004.8 0.0
18/05:30pm 34.7 35.3 18.7 38 10.6 SSW 13 17 7 9 1007.3 1004.7 0.0
18/05:00pm 35.2 34.5 18.3 36 11.1 S 19 28 10 15 1007.2 1004.6 0.0
18/04:30pm 34.6 33.3 17.3 35 11.3 S 20 30 11 16 1007.3 1004.7 0.0
18/04:00pm 34.2 33.5 18.7 40 10.3 S 20 32 11 17 1007.4 1004.8 0.0
18/03:30pm 34.7 33.1 17.4 35 11.3 S 22 33 12 18 1007.7 1005.1 0.0
18/03:00pm 35.2 36.6 19.6 40 10.5 SSW 11 15 6 8 1008.0 1005.5 0.0
18/02:30pm 32.6 34.2 19.1 44 9.0 SW 9 13 5 7 1008.0 1005.5 0.0
18/02:00pm 31.6 31.7 17.5 43 9.1 SSW 13 19 7 10 1008.5 1006.0 0.0
18/01:30pm 28.9 28.0 19.8 58 6.0 SW 24 41 13 22 1010.0 1007.4 0.0
18/01:10pm 27.3 25.2 20.6 67 4.5 W 32 50 17 27 1010.7 1008.1 0.0
18/01:00pm 29.3 27.8 17.8 50 7.4 SW 22 41 12 22 1010.5 1007.9 0.0
18/12:58pm 30.7 29.4 16.7 43 8.9 S 19 41 10 22 1010.6 1008.0 0.0
18/12:30pm 36.7 34.1 15.8 29 13.4 SE 24 35 13 19 1009.6 1007.0 0.0
18/12:00pm 37.0 33.5 15.5 28 13.7 ESE 28 39 15 21 1010.1 1007.5 0.0
18/11:30am 37.4 35.9 16.4 29 13.6 SSE 19 26 10 14 1010.3 1007.7 0.0
18/11:00am 36.3 36.0 16.5 31 12.8 SSE 13 22 7 12 1010.5 1007.9 0.0
18/10:30am 35.3 35.8 17.5 34 11.6 S 11 17 6 9 1010.6 1008.0 0.0
18/10:00am 33.7 34.7 18.6 40 10.0 SW 11 17 6 9 1010.7 1008.1 0.0
18/09:30am 32.5 32.2 18.3 43 9.3 SW 17 22 9 12 1010.5 1007.9 0.0
18/09:00am 33.1 33.8 19.6 45 9.0 WSW 15 22 8 12 1010.5 1007.9 0.0
18/08:30am 31.2 32.2 19.5 49 7.8 WSW 13 20 7 11 1010.3 1007.7 0.0
18/08:00am 30.2 31.9 20.2 55 6.7 WSW 11 15 6 8 1010.0 1007.4 0.0
18/07:30am 30.5 31.9 19.5 51 7.3 WNW 11 15 6 8 1010.0 1007.4 0.0
18/07:00am 30.1 31.4 19.2 52 7.2 WSW 11 15 6 8 1009.7 1007.1 0.0
18/06:30am 29.6 30.8 19.0 53 7.0 WSW 11 20 6 11 1008.8 1006.3 0.0
18/06:00am 29.5 30.8 19.2 54 6.8 W 11 20 6 11 1008.1 1005.6 0.0
18/05:30am 28.8 30.8 20.0 59 5.8 NW 9 11 5 6 1007.7 1005.1 0.0
18/05:00am 29.0 31.5 19.9 58 6.0 NNW 6 7 3 4 1007.5 1004.9 0.0
18/04:30am 29.2 30.7 19.8 57 6.2 NW 11 15 6 8 1007.2 1004.6 0.0
18/04:00am 29.2 30.2 19.5 56 6.4 NW 13 15 7 8 1006.9 1004.3 0.0
18/03:30am 29.2 30.7 19.8 57 6.2 NW 11 13 6 7 1006.8 1004.2 0.0
18/03:00am 29.2 30.8 19.2 54 6.6 NW 9 11 5 6 1006.7 1004.1 0.0
18/02:30am 29.7 31.2 18.8 52 7.1 NW 9 13 5 7 1006.7 1004.1 0.0
18/02:00am 30.4 31.0 18.5 49 7.8 NW 13 17 7 9 1006.4 1003.8 0.0
18/01:30am 31.0 31.3 18.0 45 8.5 NW 13 19 7 10 1006.6 1004.0 0.0
18/01:00am 31.3 31.2 17.9 44 8.7 NW 15 20 8 11 1006.8 1004.2 0.0
18/12:30am 31.5 31.2 17.4 43 9.1 NW 15 19 8 10 1007.0 1004.4 0.0
18/12:00am 31.0 31.3 18.0 45 8.5 NW 13 17 7 9 1007.3 1004.7 0.0
 
Date/Time
CST
Temp
°C
App
Temp
°C
Dew
Point
Rel
Hum
%
Delta-T
°C
Wind Press
QNH
hPa
Press
MSL
hPa
Rain
since 9 am
mm
Dir
 
Spd
km/h
Gust
km/h
Spd
kts
Gust
kts
17/11:30pm 31.3 31.6 17.9 44 8.7 NNW 13 17 7 9 1007.4 1004.8 0.0
17/11:00pm 32.0 32.0 17.1 41 9.6 NNW 13 15 7 8 1007.4 1004.8 0.0
17/10:30pm 32.7 32.4 16.5 37 10.4 NNW 13 19 7 10 1007.2 1004.6 0.0
17/10:00pm 33.4 33.0 16.3 36 10.9 NNW 13 17 7 9 1006.7 1004.1 0.0
17/09:30pm 33.7 33.5 18.6 40 10.0 N 17 26 9 14 1006.5 1003.9 0.0
17/09:00pm 33.5 34.6 17.2 37 10.6 W 7 9 4 5 1005.9 1003.4 0.0
17/08:30pm 34.3 34.6 17.1 36 11.2 WSW 11 15 6 8 1005.6 1003.1 0.0
17/08:00pm 35.1 35.9 16.4 32 12.0 WNW 7 7 4 4 1005.2 1002.7 0.0
17/07:30pm 35.8 36.3 15.5 29 13.0 WNW 7 9 4 5 1004.8 1002.2 0.0
17/07:00pm 37.5 37.5 14.1 24 14.7 WNW 7 9 4 5 1004.5 1001.9 0.0
17/06:30pm 38.8 39.3 13.9 22 15.7 NNW 4 9 2 5 1004.1 1001.5 0.0
17/06:00pm 40.6 40.5 14.0 21 16.9 W 7 15 4 8 1003.6 1001.0 0.0
17/05:30pm 40.2 39.0 12.9 20 17.1 SE 11 15 6 8 1003.5 1000.9 0.0
17/05:00pm 40.8 39.4 13.4 20 17.2 S 13 22 7 12 1003.5 1000.9 0.0
17/04:30pm 41.0 39.7 13.6 20 17.3 SW 13 20 7 11 1003.7 1001.1 0.0
17/04:00pm 40.9 40.4 15.0 22 16.6 WNW 11 20 6 11 1003.6 1001.0 0.0
17/03:30pm 40.1 38.6 14.3 22 16.4 SW 15 24 8 13 1003.9 1001.3 0.0
17/03:00pm 40.3 39.3 14.5 22 16.5 SW 13 20 7 11 1004.4 1001.8 0.0
17/02:30pm 41.0 39.4 15.1 22 16.7 SW 17 35 9 19 1004.9 1002.3 0.0

Other Formats:

Comma delimited format used in spreadsheet applications
http://www.bom.gov.au/fwo/IDD60801/IDD60801.94231.axf

JavaScript Object Notation format (JSON) in row-major order
http://www.bom.gov.au/fwo/IDD60801/IDD60801.94231.json